createdAt,value
2023-03-17T00:00:47.013Z,72.58
2023-03-17T00:01:46.738Z,72.67
2023-03-17T00:02:46.732Z,72.88
2023-03-17T00:03:46.799Z,72.99
2023-03-17T00:04:46.686Z,72.78
2023-03-17T00:05:46.752Z,72.88
2023-03-17T00:06:46.712Z,72.88
2023-03-17T00:07:47.063Z,72.88
2023-03-17T00:08:46.672Z,72.88
2023-03-17T00:09:46.638Z,73.02
2023-03-17T00:10:46.652Z,72.92
2023-03-17T00:11:46.627Z,72.67
2023-03-17T00:12:46.596Z,72.37
2023-03-17T00:13:46.639Z,72.27
2023-03-17T00:14:46.595Z,72.16
2023-03-17T00:15:46.646Z,72.06
2023-03-17T00:16:46.584Z,71.95
2023-03-17T00:17:46.592Z,71.85
2023-03-17T00:18:46.570Z,71.75
2023-03-17T00:19:46.598Z,71.55
2023-03-17T00:20:46.816Z,71.30
2023-03-17T00:21:46.512Z,71.00
2023-03-17T00:22:46.489Z,70.79
2023-03-17T00:23:46.501Z,70.58
2023-03-17T00:24:46.502Z,70.58
2023-03-17T00:25:46.515Z,70.28
2023-03-17T00:26:46.478Z,70.24
2023-03-17T00:27:46.758Z,70.24
2023-03-17T00:28:46.440Z,70.14
2023-03-17T00:29:46.463Z,70.14
2023-03-17T00:30:46.443Z,70.28
2023-03-17T00:31:46.449Z,70.37
2023-03-17T00:32:46.455Z,70.37
2023-03-17T00:33:46.408Z,70.48
2023-03-17T00:34:46.776Z,70.37
2023-03-17T00:35:46.398Z,70.37
2023-03-17T00:36:46.368Z,70.37
2023-03-17T00:37:46.379Z,70.07
2023-03-17T00:38:46.333Z,70.17
2023-03-17T00:39:46.336Z,70.04
2023-03-17T00:40:50.762Z,69.93
2023-03-17T00:41:51.036Z,69.83
2023-03-17T00:42:46.344Z,69.83
2023-03-17T00:43:46.324Z,69.83
2023-03-17T00:44:46.274Z,69.73
2023-03-17T00:45:46.254Z,69.62
2023-03-17T00:46:46.361Z,69.52
2023-03-17T00:47:46.240Z,69.31
2023-03-17T00:48:46.592Z,69.31
2023-03-17T00:49:46.257Z,69.21
2023-03-17T00:50:46.217Z,69.21
2023-03-17T00:51:46.236Z,69.21
2023-03-17T00:52:46.188Z,69.31
2023-03-17T00:53:46.183Z,69.42
2023-03-17T00:54:46.173Z,69.31
2023-03-17T00:55:46.766Z,69.62
2023-03-17T00:56:46.161Z,69.52
2023-03-17T00:57:46.154Z,69.73
2023-03-17T00:58:46.162Z,69.73
2023-03-17T00:59:46.107Z,69.73
2023-03-17T01:00:46.155Z,69.73
2023-03-17T01:01:46.216Z,69.83
2023-03-17T01:02:46.386Z,69.83
2023-03-17T01:03:46.073Z,69.83
2023-03-17T01:04:52.861Z,69.83
2023-03-17T01:05:46.073Z,69.83
2023-03-17T01:06:46.043Z,69.93
2023-03-17T01:07:46.077Z,69.83
2023-03-17T01:08:46.025Z,69.62
2023-03-17T01:09:46.297Z,69.52
2023-03-17T01:10:46.048Z,69.52
2023-03-17T01:11:45.986Z,69.52
2023-03-17T01:12:46.002Z,69.62
2023-03-17T01:13:46.008Z,69.52
2023-03-17T01:14:45.974Z,69.52
2023-03-17T01:15:45.954Z,69.62
2023-03-17T01:16:46.349Z,69.52
2023-03-17T01:17:45.952Z,69.52
2023-03-17T01:18:46.017Z,69.73
2023-03-17T01:19:45.949Z,69.62
2023-03-17T01:20:45.929Z,69.73
2023-03-17T01:21:45.888Z,69.83
2023-03-17T01:22:45.906Z,69.83
2023-03-17T01:23:46.166Z,69.93
2023-03-17T01:24:45.868Z,69.93
2023-03-17T01:25:45.895Z,69.83
2023-03-17T01:26:45.853Z,69.83
2023-03-17T01:27:45.836Z,69.93
2023-03-17T01:28:45.821Z,70.04
2023-03-17T01:29:45.806Z,69.93
2023-03-17T01:30:46.067Z,70.04
2023-03-17T01:31:45.837Z,70.14
2023-03-17T01:32:45.876Z,70.17
2023-03-17T01:33:45.769Z,70.04
2023-03-17T01:34:45.758Z,70.04
2023-03-17T01:35:45.915Z,70.14
2023-03-17T01:36:45.745Z,70.04
2023-03-17T01:37:46.033Z,70.04
2023-03-17T01:38:45.715Z,70.04
2023-03-17T01:39:45.723Z,69.93
2023-03-17T01:40:45.695Z,70.04
2023-03-17T01:41:45.681Z,69.83
2023-03-17T01:42:45.675Z,69.83
2023-03-17T01:43:45.702Z,69.73
2023-03-17T01:44:45.956Z,69.73
2023-03-17T01:45:45.714Z,69.52
2023-03-17T01:46:45.653Z,69.31
2023-03-17T01:47:45.646Z,69.21
2023-03-17T01:48:45.632Z,69.21
2023-03-17T01:49:45.638Z,69.31
2023-03-17T01:50:45.609Z,69.42
2023-03-17T01:51:45.726Z,69.42
2023-03-17T01:52:45.643Z,69.52
2023-03-17T01:53:45.555Z,69.62
2023-03-17T01:54:45.576Z,69.62
2023-03-17T01:55:45.597Z,69.62
2023-03-17T01:56:45.541Z,69.62
2023-03-17T01:57:45.826Z,69.62
2023-03-17T01:58:45.515Z,69.62
2023-03-17T01:59:45.513Z,69.73
2023-03-17T02:00:45.621Z,69.62
2023-03-17T02:01:45.538Z,69.62
2023-03-17T02:02:45.474Z,69.52
2023-03-17T02:03:45.498Z,69.42
2023-03-17T02:04:45.740Z,69.31
2023-03-17T02:05:45.477Z,69.42
2023-03-17T02:06:57.474Z,69.42
2023-03-17T02:07:45.504Z,69.42
2023-03-17T02:08:45.410Z,69.42
2023-03-17T02:09:45.404Z,69.52
2023-03-17T02:10:45.390Z,69.42
2023-03-17T02:11:45.656Z,69.42
2023-03-17T02:12:45.366Z,69.52
2023-03-17T02:13:45.437Z,69.42
2023-03-17T02:14:45.349Z,69.42
2023-03-17T02:15:45.360Z,69.45
2023-03-17T02:16:45.488Z,69.42
2023-03-17T02:17:45.324Z,69.55
2023-03-17T02:18:45.305Z,69.55
2023-03-17T02:19:45.362Z,69.65
2023-03-17T02:20:45.313Z,69.76
2023-03-17T02:21:45.298Z,69.76
2023-03-17T02:22:45.411Z,69.86
2023-03-17T02:23:45.531Z,69.96
2023-03-17T02:24:45.287Z,69.96
2023-03-17T02:25:45.271Z,69.96
2023-03-17T02:26:45.225Z,69.76
2023-03-17T02:27:45.216Z,69.65
2023-03-17T02:28:45.207Z,69.76
2023-03-17T02:29:45.205Z,69.55
2023-03-17T02:30:45.226Z,69.45
2023-03-17T02:31:45.203Z,69.55
2023-03-17T02:32:45.226Z,69.35
2023-03-17T02:33:45.149Z,69.35
2023-03-17T02:34:45.189Z,69.14
2023-03-17T02:35:45.431Z,69.14
2023-03-17T02:36:45.238Z,69.14
2023-03-17T02:37:45.150Z,69.14
2023-03-17T02:38:45.110Z,69.14
2023-03-17T02:39:45.100Z,68.90
2023-03-17T02:40:45.094Z,69.01
2023-03-17T02:41:45.066Z,68.90
2023-03-17T02:42:45.342Z,68.80
2023-03-17T02:43:45.101Z,68.70
2023-03-17T02:44:45.061Z,68.49
2023-03-17T02:45:45.076Z,68.49
2023-03-17T02:46:45.018Z,68.59
2023-03-17T02:47:45.032Z,68.59
2023-03-17T02:48:44.996Z,68.59
2023-03-17T02:49:45.335Z,68.70
2023-03-17T02:50:45.021Z,68.70
2023-03-17T02:51:44.973Z,68.70
2023-03-17T02:52:44.958Z,68.80
2023-03-17T02:53:44.947Z,68.70
2023-03-17T02:54:44.951Z,68.59
2023-03-17T02:55:45.108Z,68.59
2023-03-17T02:56:45.246Z,68.49
2023-03-17T02:57:44.916Z,68.49
2023-03-17T02:58:44.902Z,68.49
2023-03-17T02:59:44.896Z,68.59
2023-03-17T03:00:44.892Z,68.70
2023-03-17T03:01:44.968Z,68.80
2023-03-17T03:02:44.877Z,68.83
2023-03-17T03:03:45.152Z,68.93
2023-03-17T03:04:44.853Z,68.93
2023-03-17T03:05:44.850Z,68.93
2023-03-17T03:06:44.891Z,68.93
2023-03-17T03:07:44.865Z,68.80
2023-03-17T03:08:44.812Z,68.80
2023-03-17T03:09:44.853Z,68.70
2023-03-17T03:10:45.137Z,68.59
2023-03-17T03:11:44.782Z,68.49
2023-03-17T03:12:44.803Z,68.39
2023-03-17T03:13:44.785Z,68.39
2023-03-17T03:14:44.808Z,68.29
2023-03-17T03:15:44.760Z,68.29
2023-03-17T03:16:44.714Z,68.39
2023-03-17T03:17:45.002Z,68.39
2023-03-17T03:18:44.699Z,68.39
2023-03-17T03:19:44.739Z,68.49
2023-03-17T03:20:44.678Z,68.59
2023-03-17T03:21:44.682Z,68.70
2023-03-17T03:22:44.659Z,68.80
2023-03-17T03:23:44.682Z,69.04
2023-03-17T03:24:44.922Z,69.14
2023-03-17T03:25:44.678Z,69.35
2023-03-17T03:26:44.619Z,69.45
2023-03-17T03:27:44.613Z,69.55
2023-03-17T03:28:44.606Z,69.65
2023-03-17T03:29:44.652Z,69.89
2023-03-17T03:30:44.773Z,69.89
2023-03-17T03:31:44.950Z,70.00
2023-03-17T03:32:44.580Z,70.10
2023-03-17T03:33:44.624Z,70.10
2023-03-17T03:34:44.577Z,70.31
2023-03-17T03:35:44.620Z,70.41
2023-03-17T03:36:44.605Z,70.62
2023-03-17T03:37:44.554Z,70.75
2023-03-17T03:38:44.496Z,70.86
2023-03-17T03:39:44.610Z,71.06
2023-03-17T03:40:44.464Z,71.16
2023-03-17T03:41:44.542Z,71.16
2023-03-17T03:42:44.486Z,71.26
2023-03-17T03:43:44.545Z,71.26
2023-03-17T03:44:44.852Z,71.37
2023-03-17T03:45:44.421Z,71.37
2023-03-17T03:46:44.567Z,71.47
2023-03-17T03:47:44.412Z,71.47
2023-03-17T03:48:44.549Z,71.47
2023-03-17T03:49:44.507Z,71.47
2023-03-17T03:50:44.744Z,71.58
2023-03-17T03:51:44.953Z,71.68
2023-03-17T03:52:44.993Z,71.71
2023-03-17T03:53:44.354Z,71.81
2023-03-17T03:54:44.334Z,71.92
2023-03-17T03:55:44.412Z,71.92
2023-03-17T03:56:44.434Z,72.02
2023-03-17T03:57:44.309Z,72.02
2023-03-17T03:58:44.575Z,72.02
2023-03-17T03:59:44.272Z,72.13
2023-03-17T04:00:44.270Z,72.13
2023-03-17T04:01:44.290Z,72.13
2023-03-17T04:02:44.271Z,72.13
2023-03-17T04:03:44.237Z,72.23
2023-03-17T04:04:44.297Z,72.13
2023-03-17T04:05:44.523Z,72.13
2023-03-17T04:06:44.199Z,72.02
2023-03-17T04:07:44.259Z,72.13
2023-03-17T04:08:44.186Z,72.13
2023-03-17T04:09:44.201Z,72.02
2023-03-17T04:10:44.169Z,72.13
2023-03-17T04:11:44.161Z,72.02
2023-03-17T04:12:44.522Z,72.13
2023-03-17T04:13:44.198Z,72.13
2023-03-17T04:14:44.112Z,72.23
2023-03-17T04:15:44.122Z,72.23
2023-03-17T04:16:44.096Z,72.23
2023-03-17T04:17:44.112Z,72.23
2023-03-17T04:18:44.113Z,72.13
2023-03-17T04:19:44.405Z,72.02
2023-03-17T04:20:44.091Z,71.92
2023-03-17T04:21:44.055Z,71.81
2023-03-17T04:22:44.035Z,71.68
2023-03-17T04:23:44.036Z,71.81
2023-03-17T04:24:44.030Z,71.71
2023-03-17T04:25:44.078Z,71.81
2023-03-17T04:26:44.291Z,71.81
2023-03-17T04:27:44.017Z,71.71
2023-03-17T04:28:43.977Z,71.81
2023-03-17T04:29:43.985Z,71.81
2023-03-17T04:30:43.962Z,72.02
2023-03-17T04:31:44.090Z,72.02
2023-03-17T04:32:44.004Z,72.13
2023-03-17T04:33:44.214Z,72.13
2023-03-17T04:34:43.937Z,72.13
2023-03-17T04:35:44.092Z,72.23
2023-03-17T04:36:43.912Z,72.44
2023-03-17T04:37:43.956Z,72.44
2023-03-17T04:38:43.877Z,72.44
2023-03-17T04:39:43.889Z,72.23
2023-03-17T04:40:43.849Z,72.13
2023-03-17T04:41:43.842Z,72.13
2023-03-17T04:42:43.850Z,72.13
2023-03-17T04:43:43.878Z,72.13
2023-03-17T04:44:43.816Z,72.13
2023-03-17T04:45:43.842Z,72.02
2023-03-17T04:46:44.089Z,71.92
2023-03-17T04:47:43.782Z,71.81
2023-03-17T04:48:43.775Z,71.81
2023-03-17T04:49:43.842Z,71.81
2023-03-17T04:50:43.771Z,71.92
2023-03-17T04:51:43.742Z,71.81
2023-03-17T04:52:43.728Z,71.81
2023-03-17T04:53:43.734Z,71.81
2023-03-17T04:54:43.731Z,71.92
2023-03-17T04:55:43.756Z,71.92
2023-03-17T04:56:43.693Z,71.92
2023-03-17T04:57:43.704Z,71.92
2023-03-17T04:58:43.666Z,71.81
2023-03-17T04:59:43.947Z,71.71
2023-03-17T05:00:43.662Z,71.71
2023-03-17T05:01:43.681Z,71.71
2023-03-17T05:02:43.628Z,71.71
2023-03-17T05:03:43.638Z,71.71
2023-03-17T05:04:43.612Z,71.92
2023-03-17T05:05:43.616Z,72.02
2023-03-17T05:06:43.639Z,72.23
2023-03-17T05:07:43.645Z,72.47
2023-03-17T05:08:43.575Z,72.57
2023-03-17T05:09:43.566Z,72.78
2023-03-17T05:10:43.563Z,72.88
2023-03-17T05:11:43.860Z,72.99
2023-03-17T05:12:43.524Z,73.09
2023-03-17T05:13:43.557Z,72.99
2023-03-17T05:14:43.504Z,73.09
2023-03-17T05:15:43.509Z,72.78
2023-03-17T05:16:43.520Z,72.57
2023-03-17T05:17:43.468Z,72.47
2023-03-17T05:18:43.767Z,72.57
2023-03-17T05:19:43.499Z,72.57
2023-03-17T05:20:43.439Z,72.57
2023-03-17T05:21:43.448Z,72.57
2023-03-17T05:22:43.437Z,72.47
2023-03-17T05:23:43.423Z,72.47
2023-03-17T05:24:43.400Z,72.47
2023-03-17T05:25:43.778Z,72.36
2023-03-17T05:26:43.384Z,72.47
2023-03-17T05:27:43.401Z,72.47
2023-03-17T05:28:43.376Z,72.57
2023-03-17T05:29:43.391Z,72.57
2023-03-17T05:30:43.403Z,72.57
2023-03-17T05:31:43.401Z,72.67
2023-03-17T05:32:43.671Z,72.57
2023-03-17T05:33:43.352Z,72.67
2023-03-17T05:34:43.299Z,72.47
2023-03-17T05:35:43.364Z,72.47
2023-03-17T05:36:43.287Z,72.67
2023-03-17T05:37:43.325Z,72.88
2023-03-17T05:38:43.277Z,72.78
2023-03-17T05:39:43.545Z,72.99
2023-03-17T05:40:43.261Z,73.02
2023-03-17T05:41:43.232Z,73.12
2023-03-17T05:42:43.219Z,73.22
2023-03-17T05:43:43.276Z,73.33
2023-03-17T05:44:43.221Z,73.22
2023-03-17T05:45:43.282Z,73.12
2023-03-17T05:46:43.450Z,72.91
2023-03-17T05:47:43.170Z,72.88
2023-03-17T05:48:43.169Z,72.67
2023-03-17T05:49:43.235Z,72.78
2023-03-17T05:50:43.151Z,72.67
2023-03-17T05:51:43.139Z,72.78
2023-03-17T05:52:43.134Z,72.78
2023-03-17T05:53:43.387Z,72.78
2023-03-17T05:54:43.104Z,72.78
2023-03-17T05:55:43.135Z,72.81
2023-03-17T05:56:43.090Z,72.81
2023-03-17T05:57:43.076Z,72.91
2023-03-17T05:58:43.060Z,72.91
2023-03-17T05:59:43.059Z,72.91
2023-03-17T06:00:43.324Z,73.12
2023-03-17T06:01:43.091Z,73.12
2023-03-17T06:02:43.086Z,72.91
2023-03-17T06:03:43.137Z,72.99
2023-03-17T06:04:43.005Z,73.43
2023-03-17T06:05:42.988Z,72.91
2023-03-17T06:06:42.990Z,72.88
2023-03-17T06:07:53.111Z,73.12
2023-03-17T06:08:42.960Z,73.33
2023-03-17T06:09:43.026Z,73.33
2023-03-17T06:10:42.975Z,73.33
2023-03-17T06:11:43.023Z,72.99
2023-03-17T06:12:42.919Z,72.88
2023-03-17T06:13:42.988Z,72.88
2023-03-17T06:14:43.216Z,72.88
2023-03-17T06:15:42.952Z,72.78
2023-03-17T06:16:42.869Z,72.78
2023-03-17T06:17:42.964Z,72.57
2023-03-17T06:18:42.853Z,72.57
2023-03-17T06:19:42.952Z,72.16
2023-03-17T06:20:42.848Z,71.92
2023-03-17T06:21:43.124Z,71.81
2023-03-17T06:23:00.481Z,71.71
2023-03-17T06:23:42.820Z,71.61
2023-03-17T06:24:42.797Z,71.61
2023-03-17T06:25:42.813Z,71.51
2023-03-17T06:26:42.772Z,71.61
2023-03-17T06:27:42.854Z,71.41
2023-03-17T06:28:43.040Z,71.41
2023-03-17T06:29:42.756Z,71.30
2023-03-17T06:30:42.900Z,71.20
2023-03-17T06:31:43.178Z,71.20
2023-03-17T06:32:43.545Z,71.20
2023-03-17T06:33:42.743Z,71.30
2023-03-17T06:34:43.048Z,71.20
2023-03-17T06:35:43.083Z,71.16
2023-03-17T06:36:42.878Z,70.86
2023-03-17T06:37:43.062Z,70.96
2023-03-17T06:38:42.644Z,70.75
2023-03-17T06:39:42.643Z,70.54
2023-03-17T06:40:42.622Z,70.31
2023-03-17T06:41:42.629Z,70.00
2023-03-17T06:42:42.924Z,69.89
2023-03-17T06:43:42.647Z,69.89
2023-03-17T06:44:42.586Z,69.79
2023-03-17T06:45:42.608Z,69.79
2023-03-17T06:46:42.645Z,69.79
2023-03-17T06:47:42.563Z,69.69
2023-03-17T06:48:42.552Z,69.65
2023-03-17T06:49:43.389Z,69.55
2023-03-17T06:50:42.575Z,69.04
2023-03-17T06:51:42.527Z,69.01
2023-03-17T06:52:43.102Z,68.70
2023-03-17T06:53:42.481Z,68.35
2023-03-17T06:54:42.480Z,67.94
2023-03-17T06:55:42.511Z,67.43
2023-03-17T06:56:42.761Z,67.33
2023-03-17T06:57:42.465Z,67.19
2023-03-17T06:58:42.708Z,67.19
2023-03-17T06:59:42.550Z,66.78
2023-03-17T07:00:42.438Z,66.81
2023-03-17T07:01:42.537Z,66.99
2023-03-17T07:02:42.430Z,67.19
2023-03-17T07:03:42.411Z,66.99
2023-03-17T07:04:42.425Z,67.09
2023-03-17T07:05:42.389Z,66.58
2023-03-17T07:06:42.349Z,66.64
2023-03-17T07:07:42.411Z,66.24
2023-03-17T07:08:42.350Z,66.31
2023-03-17T07:09:42.630Z,65.89
2023-03-17T07:10:42.343Z,65.05
2023-03-17T07:11:42.322Z,64.73
2023-03-17T07:12:42.288Z,64.09
2023-03-17T07:13:42.338Z,63.89
2023-03-17T07:14:42.292Z,63.24
2023-03-17T07:15:42.283Z,62.90
2023-03-17T07:16:42.600Z,62.70
2023-03-17T07:17:42.257Z,61.95
2023-03-17T07:18:42.232Z,61.54
2023-03-17T07:19:42.381Z,61.23
2023-03-17T07:20:42.229Z,60.82
2023-03-17T07:21:42.217Z,61.02
2023-03-17T07:22:42.254Z,60.92
2023-03-17T07:23:42.185Z,60.95
2023-03-17T07:24:42.181Z,61.57
2023-03-17T07:25:42.247Z,61.67
2023-03-17T07:26:42.154Z,61.05
2023-03-17T07:27:42.184Z,60.92
2023-03-17T07:28:42.144Z,60.72
2023-03-17T07:29:42.387Z,60.49
2023-03-17T07:30:42.133Z,60.15
2023-03-17T07:31:42.193Z,60.74
2023-03-17T07:32:42.127Z,59.17
2023-03-17T07:33:42.097Z,57.94
2023-03-17T07:34:42.063Z,57.30
2023-03-17T07:35:42.084Z,57.61
2023-03-17T07:36:42.071Z,57.20
2023-03-17T07:37:42.120Z,57.10
2023-03-17T07:38:42.027Z,56.99
2023-03-17T07:39:42.634Z,57.07
2023-03-17T07:40:42.010Z,56.46
2023-03-17T07:41:42.016Z,55.92
2023-03-17T07:42:42.348Z,55.64
2023-03-17T07:43:42.037Z,56.18
2023-03-17T07:44:41.979Z,57.20
2023-03-17T07:45:41.992Z,56.99
2023-03-17T07:46:41.953Z,56.89
2023-03-17T07:47:41.924Z,56.59
2023-03-17T07:48:41.920Z,56.59
2023-03-17T07:49:42.518Z,56.69
2023-03-17T07:50:41.911Z,56.79
2023-03-17T07:51:41.884Z,56.89
2023-03-17T07:52:41.904Z,56.66
2023-03-17T07:53:41.869Z,55.71
2023-03-17T07:54:43.167Z,55.10
2023-03-17T07:55:41.882Z,54.59
2023-03-17T07:56:41.847Z,54.90
2023-03-17T07:57:41.921Z,54.90
2023-03-17T07:58:41.839Z,54.36
2023-03-17T07:59:41.864Z,54.59
2023-03-17T08:00:41.817Z,54.92
2023-03-17T08:01:41.922Z,55.43
2023-03-17T08:02:41.821Z,55.00
2023-03-17T08:03:42.125Z,54.90
2023-03-17T08:04:41.790Z,54.80
2023-03-17T08:05:41.826Z,54.80
2023-03-17T08:06:42.010Z,54.26
2023-03-17T08:07:41.749Z,54.46
2023-03-17T08:08:41.712Z,54.46
2023-03-17T08:09:41.746Z,54.33
2023-03-17T08:10:41.717Z,53.29
2023-03-17T08:11:41.691Z,52.88
2023-03-17T08:12:41.693Z,52.75
2023-03-17T08:13:41.995Z,52.75
2023-03-17T08:14:41.646Z,52.45
2023-03-17T08:15:41.662Z,52.55
2023-03-17T08:16:41.720Z,52.22
2023-03-17T08:17:41.621Z,51.51
2023-03-17T08:18:41.650Z,52.01
2023-03-17T08:19:41.664Z,51.81
2023-03-17T08:20:41.886Z,52.04
2023-03-17T08:21:41.596Z,52.58
2023-03-17T08:22:41.585Z,53.01
2023-03-17T08:23:41.550Z,53.49
2023-03-17T08:24:41.627Z,53.06
2023-03-17T08:25:41.657Z,52.55
2023-03-17T08:26:41.524Z,52.65
2023-03-17T08:27:41.834Z,51.81
2023-03-17T08:28:41.539Z,51.79
2023-03-17T08:29:41.487Z,51.05
2023-03-17T08:30:41.872Z,50.31
2023-03-17T08:31:41.586Z,50.62
2023-03-17T08:32:41.537Z,50.21
2023-03-17T08:33:41.470Z,50.39
2023-03-17T08:34:41.734Z,50.29
2023-03-17T08:35:41.565Z,50.29
2023-03-17T08:36:41.440Z,50.06
2023-03-17T08:37:41.434Z,49.35
2023-03-17T08:38:41.446Z,49.88
2023-03-17T08:39:41.399Z,49.78
2023-03-17T08:40:41.429Z,50.44
2023-03-17T08:41:41.663Z,50.74
2023-03-17T08:42:41.364Z,50.95
2023-03-17T08:43:41.400Z,50.74
2023-03-17T08:44:43.572Z,51.15
2023-03-17T08:45:41.434Z,50.95
2023-03-17T08:46:41.319Z,51.25
2023-03-17T08:47:41.319Z,50.72
2023-03-17T08:48:41.767Z,50.64
2023-03-17T08:49:41.314Z,51.43
2023-03-17T08:50:41.286Z,50.29
2023-03-17T08:51:41.241Z,50.62
2023-03-17T08:52:41.283Z,50.90
2023-03-17T08:53:41.236Z,49.96
2023-03-17T08:54:41.234Z,49.86
2023-03-17T08:55:41.539Z,49.76
2023-03-17T08:56:41.256Z,49.86
2023-03-17T08:57:41.213Z,49.76
2023-03-17T08:58:41.217Z,49.86
2023-03-17T08:59:41.168Z,50.06
2023-03-17T09:00:41.178Z,50.34
2023-03-17T09:01:41.242Z,50.01
2023-03-17T09:02:41.514Z,49.08
2023-03-17T09:03:41.186Z,49.16
2023-03-17T09:04:41.181Z,47.61
2023-03-17T09:05:41.119Z,48.34
2023-03-17T09:06:51.750Z,48.32
2023-03-17T09:07:41.198Z,47.91
2023-03-17T09:08:41.068Z,47.79
2023-03-17T09:09:41.046Z,47.46
2023-03-17T09:10:42.527Z,47.08
2023-03-17T09:11:41.103Z,47.16
2023-03-17T09:12:41.032Z,47.28
2023-03-17T09:13:41.130Z,47.36
2023-03-17T09:14:44.183Z,47.77
2023-03-17T09:15:41.311Z,47.79
2023-03-17T09:16:40.993Z,48.22
2023-03-17T09:17:40.983Z,47.99
2023-03-17T09:18:40.994Z,48.40
2023-03-17T09:19:41.001Z,47.69
2023-03-17T09:20:40.976Z,47.46
2023-03-17T09:21:41.008Z,47.79
2023-03-17T09:22:41.293Z,47.99
2023-03-17T09:23:41.006Z,47.97
2023-03-17T09:24:41.007Z,47.26
2023-03-17T09:25:41.005Z,47.87
2023-03-17T09:26:40.894Z,47.77
2023-03-17T09:27:40.913Z,47.56
2023-03-17T09:28:40.892Z,47.77
2023-03-17T09:29:41.136Z,47.99
2023-03-17T09:30:40.859Z,47.56
2023-03-17T09:31:40.983Z,47.95
2023-03-17T09:32:40.880Z,46.79
2023-03-17T09:33:40.871Z,46.46
2023-03-17T09:34:40.817Z,45.75
2023-03-17T09:35:40.819Z,45.53
2023-03-17T09:36:41.078Z,45.45
2023-03-17T09:37:40.855Z,45.67
2023-03-17T09:38:40.855Z,46.59
2023-03-17T09:39:40.784Z,46.16
2023-03-17T09:40:40.752Z,45.53
2023-03-17T09:41:40.768Z,44.90
2023-03-17T09:42:40.800Z,44.98
2023-03-17T09:43:41.072Z,44.48
2023-03-17T09:44:40.767Z,43.85
2023-03-17T09:45:43.480Z,43.95
2023-03-17T09:46:40.746Z,44.25
2023-03-17T09:47:42.736Z,44.27
2023-03-17T09:48:40.684Z,44.49
2023-03-17T09:49:40.731Z,44.70
2023-03-17T09:50:40.932Z,44.88
2023-03-17T09:51:40.613Z,44.68
2023-03-17T09:52:40.638Z,44.78
2023-03-17T09:53:40.614Z,44.48
2023-03-17T09:54:40.589Z,44.25
2023-03-17T09:55:40.756Z,43.63
2023-03-17T09:56:40.578Z,43.10
2023-03-17T09:57:40.892Z,43.00
2023-03-17T09:58:40.560Z,43.38
2023-03-17T09:59:40.563Z,42.76
2023-03-17T10:00:40.531Z,41.85
2023-03-17T10:01:40.618Z,42.80
2023-03-17T10:02:40.538Z,43.85
2023-03-17T10:03:40.515Z,43.87
2023-03-17T10:04:40.795Z,44.46
2023-03-17T10:05:40.700Z,44.37
2023-03-17T10:06:40.518Z,44.86
2023-03-17T10:07:40.492Z,44.15
2023-03-17T10:08:40.476Z,44.05
2023-03-17T10:09:40.437Z,45.04
2023-03-17T10:10:40.496Z,43.51
2023-03-17T10:11:40.446Z,43.85
2023-03-17T10:12:40.404Z,44.17
2023-03-17T10:13:40.452Z,44.80
2023-03-17T10:14:40.373Z,45.33
2023-03-17T10:15:40.389Z,45.31
2023-03-17T10:16:40.789Z,45.10
2023-03-17T10:17:40.564Z,44.98
2023-03-17T10:18:40.347Z,45.08
2023-03-17T10:19:40.407Z,44.66
2023-03-17T10:20:40.346Z,44.86
2023-03-17T10:21:40.299Z,44.03
2023-03-17T10:22:40.318Z,43.80
2023-03-17T10:23:40.365Z,43.52
2023-03-17T10:24:40.298Z,44.01
2023-03-17T10:25:40.307Z,44.11
2023-03-17T10:26:40.265Z,43.48
2023-03-17T10:27:40.235Z,42.86
2023-03-17T10:28:40.544Z,42.54
2023-03-17T10:29:40.258Z,42.15
2023-03-17T10:30:40.282Z,43.20
2023-03-17T10:31:40.348Z,44.03
2023-03-17T10:32:40.259Z,44.01
2023-03-17T10:33:40.203Z,43.30
2023-03-17T10:34:40.159Z,43.40
2023-03-17T10:35:40.360Z,43.18
2023-03-17T10:36:40.168Z,43.40
2023-03-17T10:37:42.517Z,44.05
2023-03-17T10:38:40.147Z,44.43
2023-03-17T10:39:40.120Z,44.23
2023-03-17T10:40:40.155Z,43.60
2023-03-17T10:41:40.096Z,43.83
2023-03-17T10:42:40.086Z,44.86
2023-03-17T10:43:40.179Z,44.56
2023-03-17T10:44:40.120Z,44.54
2023-03-17T10:45:42.768Z,44.51
2023-03-17T10:46:40.119Z,43.54
2023-03-17T10:47:40.395Z,42.52
2023-03-17T10:48:40.041Z,41.57
2023-03-17T10:49:40.133Z,41.41
2023-03-17T10:50:40.064Z,42.35
2023-03-17T10:51:40.010Z,42.66
2023-03-17T10:52:40.113Z,43.18
2023-03-17T10:53:41.204Z,43.28
2023-03-17T10:54:40.365Z,43.71
2023-03-17T10:55:40.027Z,43.52
2023-03-17T10:56:39.990Z,44.43
2023-03-17T10:57:39.990Z,44.43
2023-03-17T10:58:39.941Z,44.51
2023-03-17T10:59:42.117Z,44.31
2023-03-17T11:00:39.982Z,44.21
2023-03-17T11:01:40.234Z,43.57
2023-03-17T11:02:39.879Z,43.26
2023-03-17T11:03:40.012Z,42.84
2023-03-17T11:04:39.891Z,42.60
2023-03-17T11:05:40.189Z,42.55
2023-03-17T11:06:39.883Z,41.41
2023-03-17T11:07:39.937Z,39.98
2023-03-17T11:08:39.841Z,40.19
2023-03-17T11:09:39.905Z,39.58
2023-03-17T11:10:39.982Z,40.33
2023-03-17T11:11:40.068Z,40.81
2023-03-17T11:12:39.792Z,40.39
2023-03-17T11:13:39.873Z,39.47
2023-03-17T11:14:39.779Z,39.66
2023-03-17T11:15:39.843Z,39.64
2023-03-17T11:16:39.863Z,39.64
2023-03-17T11:17:39.764Z,39.95
2023-03-17T11:18:39.808Z,39.75
2023-03-17T11:19:40.019Z,40.05
2023-03-17T11:20:39.770Z,39.95
2023-03-17T11:21:39.716Z,39.34
2023-03-17T11:22:39.685Z,40.05
2023-03-17T11:23:39.692Z,39.48
2023-03-17T11:24:39.651Z,40.69
2023-03-17T11:25:39.815Z,41.01
2023-03-17T11:26:39.667Z,41.15
2023-03-17T11:27:39.905Z,42.07
2023-03-17T11:28:39.626Z,41.65
2023-03-17T11:29:39.622Z,41.55
2023-03-17T11:30:39.593Z,41.97
2023-03-17T11:31:39.689Z,42.68
2023-03-17T11:32:39.695Z,42.38
2023-03-17T11:33:39.691Z,41.55
2023-03-17T11:34:39.547Z,41.73
2023-03-17T11:35:39.573Z,41.41
2023-03-17T11:36:39.518Z,40.79
2023-03-17T11:37:39.562Z,40.28
2023-03-17T11:38:39.518Z,40.39
2023-03-17T11:39:39.862Z,40.91
2023-03-17T11:40:39.560Z,40.59
2023-03-17T11:41:39.524Z,40.69
2023-03-17T11:42:39.478Z,40.25
2023-03-17T11:43:39.498Z,39.83
2023-03-17T11:44:39.722Z,39.40
2023-03-17T11:45:39.491Z,38.47
2023-03-17T11:46:39.446Z,38.29
2023-03-17T11:47:39.506Z,38.53
2023-03-17T11:48:39.419Z,39.32
2023-03-17T11:49:39.513Z,39.84
2023-03-17T11:50:39.439Z,39.93
2023-03-17T11:51:39.348Z,38.82
2023-03-17T11:52:39.657Z,38.89
2023-03-17T11:53:39.408Z,38.79
2023-03-17T11:54:39.377Z,38.29
2023-03-17T11:55:39.382Z,38.67
2023-03-17T11:56:39.339Z,38.15
2023-03-17T11:57:39.292Z,38.37
2023-03-17T11:58:39.282Z,38.15
2023-03-17T11:59:39.553Z,36.93
2023-03-17T12:00:39.383Z,37.59
2023-03-17T12:01:39.345Z,38.82
2023-03-17T12:02:39.228Z,39.14
2023-03-17T12:03:39.332Z,40.20
2023-03-17T12:04:39.415Z,40.73
2023-03-17T12:05:39.258Z,41.37
2023-03-17T12:06:39.505Z,41.87
2023-03-17T12:07:39.241Z,42.07
2023-03-17T12:08:39.632Z,41.97
2023-03-17T12:09:39.170Z,42.05
2023-03-17T12:10:39.198Z,42.13
2023-03-17T12:11:39.146Z,41.21
2023-03-17T12:12:41.007Z,40.92
2023-03-17T12:13:39.268Z,41.85
2023-03-17T12:14:39.114Z,42.35
2023-03-17T12:15:39.256Z,41.73
2023-03-17T12:16:39.174Z,41.21
2023-03-17T12:17:39.307Z,40.91
2023-03-17T12:18:39.101Z,41.23
2023-03-17T12:19:39.415Z,41.73
2023-03-17T12:20:39.109Z,42.05
2023-03-17T12:21:39.089Z,42.05
2023-03-17T12:22:39.019Z,41.95
2023-03-17T12:23:39.033Z,41.83
2023-03-17T12:24:39.062Z,41.51
2023-03-17T12:25:39.037Z,41.31
2023-03-17T12:26:39.000Z,41.29
2023-03-17T12:27:38.986Z,41.29
2023-03-17T12:28:38.953Z,41.17
2023-03-17T12:29:38.948Z,40.69
2023-03-17T12:30:38.971Z,41.49
2023-03-17T12:31:39.043Z,41.39
2023-03-17T12:32:39.245Z,41.31
2023-03-17T12:33:38.928Z,41.71
2023-03-17T12:34:38.915Z,41.71
2023-03-17T12:35:38.955Z,41.82
2023-03-17T12:36:38.871Z,41.51
2023-03-17T12:37:38.920Z,41.61
2023-03-17T12:38:38.851Z,41.31
2023-03-17T12:39:38.839Z,41.83
2023-03-17T12:40:38.931Z,42.44
2023-03-17T12:41:38.837Z,42.64
2023-03-17T12:42:38.845Z,43.14
2023-03-17T12:43:38.880Z,41.93
2023-03-17T12:44:39.069Z,41.91
2023-03-17T12:45:38.804Z,41.01
2023-03-17T12:46:38.799Z,41.63
2023-03-17T12:47:38.781Z,41.11
2023-03-17T12:48:38.736Z,41.41
2023-03-17T12:49:39.026Z,41.43
2023-03-17T12:50:38.780Z,41.43
2023-03-17T12:51:38.739Z,41.83
2023-03-17T12:52:38.722Z,41.65